Time;durP1;ratioP1;P1;durP2;ratioP2;P2;SDS_P1;SDS_P2;PMS_P1;PMS_P2;Temp;Humidity;BMP_temperature;BMP_pressure;BME280_temperature;BME280_humidity;BME280_pressure;Samples;Min_cycle;Max_cycle;Signal;HPM_P1;HPM_P2
2023/07/18 00:01:58;;;;;;;9.03;3.90;;;12.80;99.90;;;;;;5087818;28;20267;-83
2023/07/18 00:04:27;;;;;;;7.77;3.40;;;13.00;99.90;;;;;;5084131;28;20225;-83
2023/07/18 00:06:54;;;;;;;9.53;4.20;;;12.80;99.90;;;;;;5101697;28;20280;-83
2023/07/18 00:09:22;;;;;;;9.43;3.40;;;12.80;99.90;;;;;;5104823;28;20209;-83
2023/07/18 00:11:49;;;;;;;6.93;3.57;;;12.70;99.90;;;;;;5101180;28;20228;-83
2023/07/18 00:14:16;;;;;;;8.67;3.60;;;12.70;99.90;;;;;;5087622;28;20210;-83
2023/07/18 00:16:44;;;;;;;7.23;3.83;;;12.90;99.90;;;;;;5091208;28;20284;-83
2023/07/18 00:19:12;;;;;;;9.07;3.37;;;12.80;99.90;;;;;;5105290;28;20205;-82
2023/07/18 00:21:39;;;;;;;7.53;3.90;;;12.70;99.90;;;;;;5102634;28;20209;-82
2023/07/18 00:24:06;;;;;;;7.73;3.70;;;12.80;99.90;;;;;;5087198;28;20195;-83
2023/07/18 00:26:35;;;;;;;8.03;3.53;;;12.80;99.90;;;;;;5084990;28;20198;-82
2023/07/18 00:29:02;;;;;;;5.37;3.50;;;12.90;99.90;;;;;;5104096;28;20198;-82
2023/07/18 00:31:28;;;;;;;8.67;3.73;;;12.80;99.90;;;;;;5103155;28;20236;-82
2023/07/18 00:33:55;;;;;;;13.47;3.90;;;12.90;99.90;;;;;;5103724;28;20240;-82
2023/07/18 00:36:22;;;;;;;12.07;4.23;;;12.90;99.90;;;;;;5102530;28;20198;-83
2023/07/18 00:38:49;;;;;;;9.70;3.37;;;12.90;99.90;;;;;;5103547;28;20581;-82
2023/07/18 00:41:15;;;;;;;10.50;3.80;;;12.80;99.90;;;;;;5102460;28;20317;-83
2023/07/18 00:43:44;;;;;;;8.60;3.67;;;12.90;99.90;;;;;;5102325;28;20218;-83
2023/07/18 00:46:15;;;;;;;8.63;4.30;;;12.90;99.90;;;;;;5102908;28;20288;-83
2023/07/18 00:48:42;;;;;;;7.80;3.47;;;12.70;99.90;;;;;;5102833;28;20201;-82
2023/07/18 00:51:10;;;;;;;10.77;3.80;;;12.70;99.90;;;;;;5103365;28;20223;-81
2023/07/18 00:53:38;;;;;;;11.23;4.13;;;12.70;99.90;;;;;;5103850;28;20227;-83
2023/07/18 00:56:06;;;;;;;11.73;3.83;;;12.70;99.90;;;;;;5104062;28;20908;-84
2023/07/18 00:58:32;;;;;;;6.90;3.83;;;12.70;99.90;;;;;;5087409;28;20202;-83
2023/07/18 01:01:01;;;;;;;9.83;3.57;;;12.80;99.90;;;;;;5082756;28;20198;-83
2023/07/18 01:03:29;;;;;;;9.47;3.67;;;12.80;99.90;;;;;;5088926;28;20214;-82
2023/07/18 01:05:56;;;;;;;11.20;4.47;;;13.00;99.90;;;;;;5079525;28;20208;-83
2023/07/18 01:08:23;;;;;;;9.20;3.77;;;12.90;99.90;;;;;;5079111;28;20237;-82
2023/07/18 01:10:49;;;;;;;10.27;4.00;;;12.70;99.90;;;;;;5079721;28;20233;-83
2023/07/18 01:13:16;;;;;;;7.83;3.50;;;12.80;99.90;;;;;;5080196;28;20694;-82
2023/07/18 01:15:44;;;;;;;11.10;4.10;;;12.70;99.90;;;;;;5078637;28;20252;-83
2023/07/18 01:18:13;;;;;;;10.40;4.00;;;12.80;99.90;;;;;;5082026;28;20655;-83
2023/07/18 01:20:40;;;;;;;9.53;4.17;;;12.70;99.90;;;;;;5099562;28;20197;-83
2023/07/18 01:23:08;;;;;;;8.50;4.30;;;12.80;99.90;;;;;;5099008;28;20690;-83
2023/07/18 01:25:36;;;;;;;9.40;4.27;;;13.20;99.90;;;;;;5100135;28;20209;-82
2023/07/18 01:28:06;;;;;;;8.43;3.80;;;13.10;99.90;;;;;;5098542;28;20193;-83
2023/07/18 01:30:33;;;;;;;9.30;4.17;;;12.90;99.90;;;;;;5099209;28;20244;-81
2023/07/18 01:33:00;;;;;;;10.73;4.17;;;12.90;99.90;;;;;;5098770;28;20233;-84
2023/07/18 01:35:27;;;;;;;9.77;4.30;;;12.90;99.90;;;;;;5098659;28;20204;-83
2023/07/18 01:37:58;;;;;;;10.80;4.30;;;12.90;99.90;;;;;;5098480;28;20574;-83
2023/07/18 01:40:26;;;;;;;14.53;4.17;;;12.80;99.90;;;;;;5098633;28;20297;-83
2023/07/18 01:42:54;;;;;;;10.60;4.00;;;12.80;99.90;;;;;;5090709;28;20618;-82
2023/07/18 01:45:23;;;;;;;9.10;3.87;;;12.80;99.90;;;;;;5098124;28;20576;-82
2023/07/18 01:47:52;;;;;;;8.97;3.97;;;12.80;99.90;;;;;;5095443;28;20193;-83
2023/07/18 01:50:19;;;;;;;13.57;3.97;;;12.60;99.90;;;;;;5080585;28;20720;-83
2023/07/18 01:52:46;;;;;;;13.93;4.47;;;12.60;99.90;;;;;;5097668;28;20218;-81
2023/07/18 01:55:13;;;;;;;10.37;3.70;;;12.60;99.90;;;;;;5098649;28;20642;-83
2023/07/18 01:57:46;;;;;;;10.10;4.43;;;12.60;99.90;;;;;;5098037;28;20221;-82
2023/07/18 02:00:18;;;;;;;11.50;4.37;;;12.60;99.90;;;;;;5098522;28;20194;-82
2023/07/18 02:02:48;;;;;;;8.83;3.57;;;12.60;99.90;;;;;;5098464;28;20265;-83
2023/07/18 02:05:17;;;;;;;8.13;4.13;;;12.70;99.90;;;;;;5097962;28;20201;-82
2023/07/18 02:07:43;;;;;;;11.33;4.33;;;12.60;99.90;;;;;;5097873;28;20251;-82
2023/07/18 02:10:10;;;;;;;13.50;4.60;;;12.60;99.90;;;;;;5097790;28;20201;-83
2023/07/18 02:12:37;;;;;;;12.53;5.37;;;12.60;99.90;;;;;;5097765;28;20226;-82
2023/07/18 02:15:07;;;;;;;9.50;4.30;;;12.70;99.90;;;;;;5097501;28;20673;-83
2023/07/18 02:17:34;;;;;;;8.67;4.43;;;12.60;99.90;;;;;;5089567;28;20220;-83
2023/07/18 02:20:05;;;;;;;11.73;4.40;;;12.60;99.90;;;;;;5087354;28;20189;-83
2023/07/18 02:22:34;;;;;;;15.60;4.80;;;12.70;99.90;;;;;;5091576;28;20218;-83
2023/07/18 02:25:02;;;;;;;11.40;4.50;;;12.70;99.90;;;;;;5078969;28;20204;-82
2023/07/18 02:27:29;;;;;;;13.57;4.63;;;12.70;99.90;;;;;;5096684;28;20205;-83
2023/07/18 02:29:55;;;;;;;10.20;4.90;;;12.70;99.90;;;;;;5097029;28;20713;-83
2023/07/18 02:32:23;;;;;;;15.17;4.97;;;12.80;99.90;;;;;;5096477;28;20293;-83
2023/07/18 02:34:50;;;;;;;9.97;4.80;;;12.80;99.90;;;;;;5096672;28;20579;-84
2023/07/18 02:37:20;;;;;;;10.30;5.17;;;12.80;99.90;;;;;;5096644;28;20288;-83
2023/07/18 02:39:47;;;;;;;12.33;4.77;;;12.80;99.90;;;;;;5097580;28;20284;-83
2023/07/18 02:42:13;;;;;;;8.73;4.33;;;12.60;99.90;;;;;;5096193;28;20214;-82
2023/07/18 02:44:40;;;;;;;9.87;4.63;;;12.50;99.90;;;;;;5097307;28;20204;-82
2023/07/18 02:47:07;;;;;;;14.17;5.53;;;12.50;99.90;;;;;;5096948;28;20208;-83
2023/07/18 02:49:35;;;;;;;13.23;5.17;;;12.60;99.90;;;;;;5095841;28;20253;-83
2023/07/18 02:52:02;;;;;;;12.00;4.87;;;12.60;99.90;;;;;;5095575;28;20286;-83
2023/07/18 02:54:29;;;;;;;10.00;5.30;;;12.80;99.90;;;;;;5095295;28;20231;-84
2023/07/18 02:56:58;;;;;;;10.00;4.57;;;12.60;99.90;;;;;;5095528;28;20233;-84
2023/07/18 02:59:25;;;;;;;12.20;5.40;;;12.50;99.90;;;;;;5098432;28;20205;-83
2023/07/18 03:01:54;;;;;;;11.13;4.53;;;12.60;99.90;;;;;;5095798;28;20233;-83
2023/07/18 03:04:21;;;;;;;15.30;4.80;;;12.70;99.90;;;;;;5096202;28;20201;-83
2023/07/18 03:06:51;;;;;;;17.23;5.40;;;12.50;99.90;;;;;;5095676;28;20198;-83
2023/07/18 03:09:19;;;;;;;13.43;5.07;;;12.60;99.90;;;;;;5095966;28;20205;-83
2023/07/18 03:11:46;;;;;;;13.93;4.70;;;12.50;99.90;;;;;;5095218;28;20236;-83
2023/07/18 03:14:14;;;;;;;17.33;4.80;;;12.40;99.90;;;;;;5094988;28;20607;-83
2023/07/18 03:16:41;;;;;;;19.10;5.60;;;12.40;99.90;;;;;;5094547;28;20205;-84
2023/07/18 03:19:10;;;;;;;15.50;6.90;;;12.30;99.90;;;;;;5095073;28;20209;-83
2023/07/18 03:21:36;;;;;;;15.97;5.13;;;12.40;99.90;;;;;;5094886;28;20202;-84
2023/07/18 03:24:07;;;;;;;14.20;5.10;;;12.30;99.90;;;;;;5093072;28;20201;-82
2023/07/18 03:26:34;;;;;;;16.40;5.20;;;12.20;99.90;;;;;;5093873;28;20620;-80
2023/07/18 03:29:01;;;;;;;13.30;4.77;;;12.20;99.90;;;;;;5079201;28;20684;-82
2023/07/18 03:31:27;;;;;;;14.20;5.60;;;12.30;99.90;;;;;;5094644;28;20225;-81
2023/07/18 03:33:54;;;;;;;16.43;4.93;;;12.30;99.90;;;;;;5094413;28;20308;-82
2023/07/18 03:36:21;;;;;;;11.23;5.00;;;12.30;99.90;;;;;;5094374;28;20208;-81
2023/07/18 03:38:48;;;;;;;12.17;5.10;;;12.20;99.90;;;;;;5094734;28;20204;-82
2023/07/18 03:41:16;;;;;;;9.63;4.93;;;12.30;99.90;;;;;;5095130;28;20212;-81
2023/07/18 03:43:43;;;;;;;14.20;5.17;;;12.30;99.90;;;;;;5095104;28;20565;-80
2023/07/18 03:46:10;;;;;;;13.37;4.67;;;12.30;99.90;;;;;;5094602;28;20202;-82
2023/07/18 03:48:37;;;;;;;14.90;5.47;;;12.50;99.90;;;;;;5095301;28;20198;-80
2023/07/18 03:51:05;;;;;;;11.33;4.73;;;12.60;99.90;;;;;;5095570;28;20519;-82
2023/07/18 03:53:32;;;;;;;16.10;4.87;;;12.50;99.90;;;;;;5095106;28;20229;-82
2023/07/18 03:56:03;;;;;;;11.40;5.00;;;12.40;99.90;;;;;;5094654;28;20213;-81
2023/07/18 03:58:31;;;;;;;10.13;5.30;;;12.60;99.90;;;;;;5095057;28;20201;-82
2023/07/18 04:00:58;;;;;;;9.87;4.60;;;12.50;99.90;;;;;;5095215;28;20194;-83
2023/07/18 04:03:25;;;;;;;12.17;5.00;;;12.60;99.90;;;;;;5094706;28;20224;-82
2023/07/18 04:05:52;;;;;;;13.50;5.53;;;12.70;99.90;;;;;;5095100;28;20198;-83
2023/07/18 04:08:19;;;;;;;10.53;4.53;;;12.60;99.90;;;;;;5094168;28;20210;-81
2023/07/18 04:10:46;;;;;;;12.67;4.63;;;12.80;99.90;;;;;;5094729;28;20239;-82
2023/07/18 04:13:14;;;;;;;14.20;4.60;;;12.90;99.90;;;;;;5094846;28;20253;-80
2023/07/18 04:15:42;;;;;;;10.43;4.50;;;12.80;99.90;;;;;;5094977;28;20236;-81
2023/07/18 04:18:09;;;;;;;17.07;4.87;;;12.90;99.90;;;;;;5094797;28;20206;-82
2023/07/18 04:20:36;;;;;;;14.07;5.20;;;12.90;99.90;;;;;;5095471;28;20657;-81
2023/07/18 04:23:03;;;;;;;10.17;4.70;;;12.80;99.90;;;;;;5094976;28;20222;-83
2023/07/18 04:25:32;;;;;;;11.52;5.00;;;12.80;99.90;;;;;;5094792;28;20254;-81
2023/07/18 04:27:59;;;;;;;11.50;4.40;;;13.00;99.90;;;;;;5095233;28;20201;-82
2023/07/18 04:30:26;;;;;;;13.13;4.53;;;13.00;99.90;;;;;;5095073;28;20201;-81
2023/07/18 04:32:54;;;;;;;11.77;5.60;;;13.00;99.90;;;;;;5094754;28;20316;-81
2023/07/18 04:35:21;;;;;;;14.43;4.57;;;13.10;99.90;;;;;;5094608;28;20201;-82
2023/07/18 04:37:48;;;;;;;11.00;4.97;;;13.10;99.90;;;;;;5093564;28;20229;-82
2023/07/18 04:40:15;;;;;;;12.03;4.43;;;13.20;99.90;;;;;;5097799;28;20198;-82
2023/07/18 04:42:42;;;;;;;9.77;4.38;;;13.30;99.90;;;;;;5098151;28;20247;-82
2023/07/18 04:45:09;;;;;;;10.20;4.60;;;13.20;99.90;;;;;;5098351;28;20212;-83
2023/07/18 04:47:36;;;;;;;11.43;4.50;;;13.40;99.90;;;;;;5094288;28;20216;-83
2023/07/18 04:50:05;;;;;;;13.55;5.10;;;13.50;99.90;;;;;;5092129;28;20198;-82
2023/07/18 04:52:32;;;;;;;13.07;5.13;;;13.40;99.90;;;;;;5089658;28;20226;-82
2023/07/18 04:54:59;;;;;;;12.63;4.70;;;13.70;99.90;;;;;;5085651;28;20274;-81
2023/07/18 04:57:26;;;;;;;8.63;4.57;;;13.60;99.90;;;;;;5097612;28;20288;-83
2023/07/18 04:59:53;;;;;;;8.00;4.63;;;13.50;99.90;;;;;;5081334;28;20229;-82
2023/07/18 05:02:20;;;;;;;11.03;5.07;;;13.70;99.90;;;;;;5092551;28;20579;-83
2023/07/18 05:04:48;;;;;;;10.37;4.53;;;13.90;99.90;;;;;;5092945;28;20433;-81
2023/07/18 05:07:16;;;;;;;11.60;5.00;;;14.10;99.90;;;;;;5097675;28;20241;-81
2023/07/18 05:09:46;;;;;;;10.63;4.47;;;14.20;99.90;;;;;;5097779;28;20212;-82
2023/07/18 05:12:13;;;;;;;8.43;4.40;;;14.30;99.90;;;;;;5097474;28;20221;-81
2023/07/18 05:14:40;;;;;;;11.67;5.30;;;14.30;99.90;;;;;;5097457;28;20206;-81
2023/07/18 05:17:07;;;;;;;11.30;4.67;;;14.30;99.90;;;;;;5097408;28;20205;-82
2023/07/18 05:19:34;;;;;;;11.02;4.70;;;14.70;99.90;;;;;;5097287;28;20585;-82
2023/07/18 05:22:00;;;;;;;10.45;4.80;;;14.90;99.90;;;;;;5097343;28;20221;-81
2023/07/18 05:24:28;;;;;;;9.45;4.72;;;14.80;99.90;;;;;;5096347;28;20227;-82
2023/07/18 05:26:55;;;;;;;12.05;4.43;;;15.20;99.90;;;;;;5094892;28;20194;-82
2023/07/18 05:29:22;;;;;;;10.68;4.65;;;15.30;99.90;;;;;;5095406;28;20206;-83
2023/07/18 05:31:49;;;;;;;12.48;4.75;;;15.50;99.90;;;;;;5095389;28;20227;-82
2023/07/18 05:34:16;;;;;;;12.45;4.70;;;16.70;99.90;;;;;;5093146;28;20197;-82
2023/07/18 05:36:42;;;;;;;10.18;4.40;;;17.30;99.90;;;;;;5080493;28;20269;-81
2023/07/18 05:39:09;;;;;;;11.60;4.60;;;16.60;99.90;;;;;;5085146;28;20289;-82
2023/07/18 05:41:37;;;;;;;9.10;4.68;;;16.00;99.90;;;;;;5095808;28;20198;-82
2023/07/18 05:44:04;;;;;;;12.98;5.15;;;15.60;99.90;;;;;;5095717;28;20354;-82
2023/07/18 05:46:31;;;;;;;8.40;4.25;;;15.50;99.90;;;;;;5095504;28;20213;-83
2023/07/18 05:48:58;;;;;;;12.65;4.18;;;15.70;99.90;;;;;;5095626;28;20205;-82
2023/07/18 05:51:25;;;;;;;8.68;4.50;;;15.80;99.90;;;;;;5095802;28;20478;-83
2023/07/18 05:53:51;;;;;;;11.80;5.00;;;15.70;99.90;;;;;;5095046;28;20639;-81
2023/07/18 05:56:18;;;;;;;9.15;4.43;;;17.40;99.90;;;;;;5095695;28;20224;-83
2023/07/18 05:58:47;;;;;;;6.80;3.78;;;17.50;99.90;;;;;;5095323;28;20689;-83
2023/07/18 06:01:14;;;;;;;12.70;4.38;;;17.40;99.90;;;;;;5095435;28;20656;-82
2023/07/18 06:03:41;;;;;;;10.30;4.28;;;18.60;99.90;;;;;;5095739;28;20572;-82
2023/07/18 06:06:09;;;;;;;10.43;4.40;;;17.40;99.90;;;;;;5096227;28;20240;-82
2023/07/18 06:08:37;;;;;;;11.93;4.30;;;16.40;99.90;;;;;;5095494;28;20220;-82
2023/07/18 06:11:04;;;;;;;7.47;4.35;;;16.30;99.90;;;;;;5095208;28;20206;-81
2023/07/18 06:13:31;;;;;;;8.98;4.70;;;16.00;99.90;;;;;;5095559;28;20237;-83
2023/07/18 06:15:59;;;;;;;8.07;4.15;;;15.80;99.90;;;;;;5095927;28;20208;-83
2023/07/18 06:18:26;;;;;;;8.15;4.10;;;15.70;99.90;;;;;;5083947;28;20205;-82
2023/07/18 06:20:52;;;;;;;10.75;4.47;;;15.80;99.90;;;;;;5079557;28;20235;-82
2023/07/18 06:23:19;;;;;;;11.93;4.65;;;15.80;99.90;;;;;;5095588;28;20214;-83
2023/07/18 06:25:46;;;;;;;7.75;4.30;;;15.70;99.90;;;;;;5094672;28;20205;-81
2023/07/18 06:28:13;;;;;;;11.38;4.30;;;15.70;99.90;;;;;;5095176;28;20634;-81
2023/07/18 06:30:40;;;;;;;8.43;3.90;;;15.70;99.90;;;;;;5095586;28;20570;-83
2023/07/18 06:33:09;;;;;;;9.55;4.07;;;15.70;99.90;;;;;;5093902;28;20238;-81
2023/07/18 06:35:37;;;;;;;11.45;4.63;;;15.80;99.90;;;;;;5093698;28;20237;-82
2023/07/18 06:38:03;;;;;;;9.18;4.82;;;15.90;99.90;;;;;;5094358;28;20213;-82
2023/07/18 06:40:30;;;;;;;6.47;3.70;;;15.80;99.90;;;;;;5094362;28;20206;-82
2023/07/18 06:42:57;;;;;;;9.60;3.85;;;16.00;99.90;;;;;;5094396;28;20217;-82
2023/07/18 06:45:24;;;;;;;12.50;4.28;;;16.10;99.90;;;;;;5094464;28;20205;-83
2023/07/18 06:47:50;;;;;;;8.68;3.92;;;16.10;99.90;;;;;;5094873;28;20615;-82
2023/07/18 06:50:19;;;;;;;6.60;3.40;;;16.20;99.90;;;;;;5094108;28;20293;-81
2023/07/18 06:52:46;;;;;;;10.55;3.83;;;16.20;99.90;;;;;;5095358;28;20308;-82
2023/07/18 06:55:12;;;;;;;8.20;3.90;;;16.20;99.90;;;;;;5094236;28;20208;-82
2023/07/18 06:57:39;;;;;;;8.23;3.80;;;16.20;99.90;;;;;;5094164;28;20202;-81
2023/07/18 07:00:07;;;;;;;6.68;3.58;;;16.20;99.90;;;;;;5086180;28;20581;-81
2023/07/18 07:02:34;;;;;;;8.30;3.92;;;16.30;99.90;;;;;;5089931;28;20233;-81
2023/07/18 07:05:01;;;;;;;7.20;3.72;;;16.30;99.90;;;;;;5074531;28;20198;-81
2023/07/18 07:07:29;;;;;;;7.78;3.50;;;16.30;99.90;;;;;;5073340;28;20206;-82
2023/07/18 07:09:56;;;;;;;6.63;3.08;;;16.30;99.90;;;;;;5074672;28;20293;-81
2023/07/18 07:12:23;;;;;;;8.45;3.50;;;16.50;99.90;;;;;;5090540;28;20229;-81
2023/07/18 07:14:50;;;;;;;10.27;3.22;;;16.50;99.90;;;;;;5093850;28;20676;-81
2023/07/18 07:17:16;;;;;;;5.20;3.13;;;16.60;99.90;;;;;;5094077;28;20679;-81
2023/07/18 07:19:44;;;;;;;8.32;3.95;;;16.60;99.90;;;;;;5094473;28;20201;-83
2023/07/18 07:22:13;;;;;;;6.75;3.33;;;16.60;99.90;;;;;;5094618;28;20248;-83
2023/07/18 07:24:41;;;;;;;8.40;3.40;;;16.60;99.90;;;;;;5095154;28;20205;-82
2023/07/18 07:27:09;;;;;;;5.95;2.80;;;16.70;99.90;;;;;;5094207;28;20212;-81
2023/07/18 07:29:38;;;;;;;7.30;3.10;;;17.00;99.90;;;;;;5094356;28;20210;-81
2023/07/18 07:32:06;;;;;;;6.22;3.25;;;16.90;99.90;;;;;;5088377;28;20335;-82
2023/07/18 07:34:33;;;;;;;4.88;2.80;;;17.00;99.90;;;;;;5090799;28;20224;-81
2023/07/18 07:36:59;;;;;;;8.98;3.45;;;17.00;99.90;;;;;;5092888;28;20645;-81
2023/07/18 07:39:26;;;;;;;6.45;2.78;;;17.00;99.90;;;;;;5091411;28;20205;-82
2023/07/18 07:41:54;;;;;;;5.43;3.45;;;17.10;99.90;;;;;;5077822;28;20225;-82
2023/07/18 07:44:21;;;;;;;6.25;3.10;;;17.10;99.90;;;;;;5083790;28;20204;-81
2023/07/18 07:46:48;;;;;;;7.35;3.50;;;17.10;99.90;;;;;;5073200;28;20210;-81
2023/07/18 07:49:14;;;;;;;9.93;3.50;;;17.30;99.90;;;;;;5084281;28;20212;-81
2023/07/18 07:51:42;;;;;;;6.35;3.25;;;17.40;99.90;;;;;;5084455;28;20670;-81
2023/07/18 07:54:09;;;;;;;8.52;3.80;;;17.40;99.90;;;;;;5093577;28;20221;-82
2023/07/18 07:56:35;;;;;;;6.45;2.85;;;17.50;99.90;;;;;;5093961;28;20213;-83
2023/07/18 07:59:03;;;;;;;8.35;2.92;;;17.60;99.90;;;;;;5093973;28;20198;-80
2023/07/18 08:01:30;;;;;;;6.50;3.22;;;17.60;99.90;;;;;;5093624;28;20247;-81
2023/07/18 08:03:57;;;;;;;7.20;2.60;;;17.70;99.90;;;;;;5093777;28;20226;-80
2023/07/18 08:06:24;;;;;;;7.28;3.08;;;17.80;99.90;;;;;;5093178;28;20517;-81
2023/07/18 08:08:51;;;;;;;4.95;2.88;;;17.90;99.90;;;;;;5074080;28;20199;-81
2023/07/18 08:11:17;;;;;;;4.65;2.50;;;17.90;99.90;;;;;;5075314;28;20221;-83
2023/07/18 08:13:44;;;;;;;4.15;2.67;;;17.90;99.90;;;;;;5096444;28;20228;-81
2023/07/18 08:16:12;;;;;;;4.57;2.90;;;18.00;99.90;;;;;;5098051;28;20205;-80
2023/07/18 08:18:39;;;;;;;5.70;2.80;;;18.00;99.90;;;;;;5097355;28;20292;-82
2023/07/18 08:21:06;;;;;;;6.85;3.00;;;18.10;99.90;;;;;;5098682;28;20241;-81
2023/07/18 08:23:33;;;;;;;9.15;3.10;;;18.20;99.90;;;;;;5098297;28;20258;-82
2023/07/18 08:26:00;;;;;;;9.70;3.17;;;18.30;99.90;;;;;;5097356;28;20284;-81
2023/07/18 08:28:27;;;;;;;4.60;2.70;;;18.30;99.90;;;;;;5096582;28;20450;-82
2023/07/18 08:30:53;;;;;;;4.15;2.60;;;18.40;99.90;;;;;;5077775;28;20202;-81
2023/07/18 08:33:24;;;;;;;4.32;2.38;;;18.50;99.90;;;;;;5098060;28;20256;-81
2023/07/18 08:35:51;;;;;;;5.20;2.33;;;18.50;99.90;;;;;;5097596;28;20603;-83
2023/07/18 08:38:18;;;;;;;4.50;2.75;;;18.30;99.90;;;;;;5097216;28;20202;-80
2023/07/18 08:40:44;;;;;;;6.80;2.83;;;18.50;99.90;;;;;;5097242;28;20212;-81
2023/07/18 08:43:14;;;;;;;6.00;2.25;;;18.60;99.90;;;;;;5097580;28;20253;-80
2023/07/18 08:45:41;;;;;;;6.13;2.70;;;18.50;99.90;;;;;;5097984;28;20206;-82
2023/07/18 08:48:09;;;;;;;5.13;2.28;;;18.80;99.90;;;;;;5098626;28;20201;-82
2023/07/18 08:50:40;;;;;;;3.10;2.22;;;19.10;99.90;;;;;;5098209;28;20205;-81
2023/07/18 08:53:07;;;;;;;7.18;2.50;;;19.10;99.90;;;;;;5097965;28;20222;-82
2023/07/18 08:55:36;;;;;;;5.88;2.72;;;19.10;99.90;;;;;;5097935;28;20208;-80
2023/07/18 08:58:03;;;;;;;3.08;2.40;;;19.30;99.90;;;;;;5097221;28;20669;-81
2023/07/18 09:00:30;;;;;;;5.32;2.40;;;19.50;99.90;;;;;;5097423;28;20210;-82
2023/07/18 09:02:57;;;;;;;4.55;2.72;;;19.90;99.90;;;;;;5098132;28;20300;-81
2023/07/18 09:05:32;;;;;;;5.10;1.75;;;20.10;99.90;;;;;;5097634;28;20662;-82
2023/07/18 09:08:01;;;;;;;5.40;2.10;;;20.60;99.90;;;;;;5097647;28;20197;-81
2023/07/18 09:10:29;;;;;;;4.60;1.95;;;20.60;99.90;;;;;;5097637;28;20200;-82
2023/07/18 09:13:01;;;;;;;5.15;1.63;;;20.70;99.90;;;;;;5098135;28;20373;-81
2023/07/18 09:15:28;;;;;;;3.83;1.60;;;20.90;99.90;;;;;;5098687;28;20551;-81
2023/07/18 09:17:56;;;;;;;4.03;1.80;;;21.50;99.90;;;;;;5097603;28;20207;-82
2023/07/18 09:20:25;;;;;;;5.38;2.30;;;21.00;99.90;;;;;;5097319;28;20496;-83
2023/07/18 09:22:56;;;;;;;5.88;2.25;;;21.30;99.90;;;;;;5097129;28;20221;-81
2023/07/18 09:25:24;;;;;;;3.60;1.73;;;21.00;99.90;;;;;;5095985;28;20205;-83
2023/07/18 09:27:51;;;;;;;3.35;2.10;;;20.60;99.90;;;;;;5096585;28;20202;-82
2023/07/18 09:30:22;;;;;;;4.10;2.08;;;21.00;99.90;;;;;;5098847;28;20551;-81
2023/07/18 09:32:51;;;;;;;3.53;1.58;;;21.90;99.90;;;;;;5099076;28;20558;-80
2023/07/18 09:35:17;;;;;;;3.47;1.88;;;21.20;99.90;;;;;;5098034;28;20205;-80
2023/07/18 09:37:46;;;;;;;2.60;1.67;;;21.00;99.90;;;;;;5096449;28;20671;-81
2023/07/18 09:40:15;;;;;;;5.07;1.67;;;21.50;99.90;;;;;;5096113;28;20237;-80
2023/07/18 09:42:44;;;;;;;5.15;1.65;;;21.70;99.90;;;;;;5096628;28;20251;-83
2023/07/18 09:45:12;;;;;;;3.55;1.70;;;22.10;99.90;;;;;;5097445;28;20654;-80
2023/07/18 09:47:41;;;;;;;2.88;1.77;;;22.50;99.90;;;;;;5095953;28;20206;-82
2023/07/18 09:50:08;;;;;;;4.70;1.42;;;22.80;99.90;;;;;;5097209;28;20197;-80
2023/07/18 09:52:36;;;;;;;3.13;1.83;;;22.60;99.90;;;;;;5097511;28;20575;-83
2023/07/18 09:55:07;;;;;;;6.25;2.08;;;23.40;99.90;;;;;;5096637;28;20762;-82
2023/07/18 09:57:36;;;;;;;4.25;1.90;;;23.60;99.90;;;;;;5096471;28;20237;-81
2023/07/18 10:00:06;;;;;;;4.07;1.77;;;23.60;99.90;;;;;;5096970;28;20205;-81
2023/07/18 10:02:34;;;;;;;4.85;1.60;;;23.40;99.90;;;;;;5097470;28;20275;-81
2023/07/18 10:05:02;;;;;;;3.10;1.40;;;23.50;99.90;;;;;;5097025;28;20292;-80
2023/07/18 10:07:32;;;;;;;4.28;1.55;;;23.70;99.90;;;;;;5096682;28;20197;-80
2023/07/18 10:10:00;;;;;;;2.13;1.60;;;23.90;99.90;;;;;;5096818;28;20208;-80
2023/07/18 10:12:27;;;;;;;4.07;1.77;;;23.60;99.90;;;;;;5096844;28;20753;-81
2023/07/18 10:14:58;;;;;;;2.95;1.75;;;24.00;99.90;;;;;;5095849;28;20221;-82
2023/07/18 10:17:37;;;;;;;4.68;1.83;;;24.20;99.90;;;;;;5096183;28;20255;-81
2023/07/18 10:20:18;;;;;;;4.82;2.03;;;24.10;98.70;;;;;;5096731;28;20713;-81
2023/07/18 10:22:50;;;;;;;3.22;1.80;;;23.90;99.90;;;;;;5095840;28;20237;-81
2023/07/18 10:25:19;;;;;;;4.93;1.75;;;24.70;95.90;;;;;;5097047;28;20281;-82
2023/07/18 10:27:46;;;;;;;3.75;1.80;;;24.80;80.30;;;;;;5097202;28;20567;-80
2023/07/18 10:30:15;;;;;;;3.85;2.10;;;24.50;65.20;;;;;;5097609;28;20650;-82
2023/07/18 10:32:50;;;;;;;3.42;1.70;;;24.00;99.90;;;;;;5091194;28;20260;-80
2023/07/18 10:35:18;;;;;;;3.95;1.70;;;24.20;56.30;;;;;;5086352;28;20221;-80
2023/07/18 10:37:46;;;;;;;5.40;1.95;;;24.40;75.30;;;;;;5092724;28;20216;-80
2023/07/18 10:40:31;;;;;;;5.03;2.15;;;24.40;37.50;;;;;;5082148;28;20193;-81
2023/07/18 10:42:58;;;;;;;2.78;1.75;;;23.70;49.60;;;;;;5093658;28;20604;-81
2023/07/18 10:45:26;;;;;;;5.25;2.10;;;23.80;97.10;;;;;;5085816;28;20197;-81
2023/07/18 10:47:54;;;;;;;3.10;2.05;;;24.00;62.50;;;;;;5079783;28;20201;-81
2023/07/18 10:50:21;;;;;;;4.35;1.65;;;24.20;32.50;;;;;;5082871;28;20209;-79
2023/07/18 10:52:48;;;;;;;4.03;1.70;;;24.40;14.90;;;;;;5097088;28;20283;-82
2023/07/18 10:55:16;;;;;;;2.67;1.38;;;24.70;26.00;;;;;;5095732;28;20239;-79
2023/07/18 10:57:43;;;;;;;3.42;1.75;;;24.90;25.60;;;;;;5096456;28;20214;-82
2023/07/18 11:00:11;;;;;;;4.22;1.38;;;24.20;1.00;;;;;;5096600;28;20273;-81
2023/07/18 11:02:41;;;;;;;2.30;1.40;;;23.80;1.00;;;;;;5094514;28;20230;-82
2023/07/18 11:05:11;;;;;;;5.32;1.90;;;23.90;1.00;;;;;;5093338;28;20670;-81
2023/07/18 11:07:39;;;;;;;2.80;1.13;;;24.20;1.00;;;;;;5094875;28;20209;-80
2023/07/18 11:10:08;;;;;;;2.13;1.42;;;24.70;1.00;;;;;;5096727;28;20205;-82
2023/07/18 11:12:34;;;;;;;4.80;1.67;;;24.80;1.00;;;;;;5095436;28;20282;-82
2023/07/18 11:15:03;;;;;;;2.53;1.33;;;25.40;1.00;;;;;;5096310;28;20696;-82
2023/07/18 11:17:31;;;;;;;2.92;1.02;;;25.90;1.00;;;;;;5094904;28;20194;-82
2023/07/18 11:19:58;;;;;;;3.45;1.35;;;25.50;1.00;;;;;;5095553;28;20546;-82
2023/07/18 11:22:29;;;;;;;1.88;1.40;;;25.00;1.00;;;;;;5096972;28;20217;-81
2023/07/18 11:24:56;;;;;;;1.95;1.15;;;25.30;1.00;;;;;;5096106;28;20197;-80
2023/07/18 11:27:24;;;;;;;2.25;1.50;;;25.30;1.00;;;;;;5095310;28;20265;-82
2023/07/18 11:30:03;;;;;;;1.40;1.08;;;25.40;1.00;;;;;;5088421;28;20558;-81
2023/07/18 11:32:40;;;;;;;2.90;1.13;;;25.20;1.00;;;;;;5085900;28;20308;-82
2023/07/18 11:35:09;;;;;;;1.33;1.17;;;25.00;1.00;;;;;;5095239;28;20300;-80
2023/07/18 11:37:41;;;;;;;2.17;1.40;;;24.50;1.00;;;;;;5096776;28;20642;-81
2023/07/18 11:40:09;;;;;;;2.00;1.40;;;24.40;1.00;;;;;;5082121;28;20202;-82
2023/07/18 11:42:47;;;;;;;1.33;1.15;;;24.10;1.00;;;;;;5077549;28;20309;-81
2023/07/18 11:45:17;;;;;;;3.00;1.20;;;24.60;1.00;;;;;;5075803;28;20198;-80
2023/07/18 11:47:45;;;;;;;3.30;1.15;;;25.10;1.00;;;;;;5077263;28;20262;-81
2023/07/18 11:50:12;;;;;;;2.33;1.27;;;25.20;1.00;;;;;;5078789;28;20270;-81
2023/07/18 11:52:42;;;;;;;2.42;1.45;;;25.50;1.00;;;;;;5088849;28;20579;-80
2023/07/18 11:55:09;;;;;;;1.80;1.40;;;26.70;1.00;;;;;;5098064;28;20229;-82
2023/07/18 11:57:36;;;;;;;3.35;1.48;;;26.70;1.00;;;;;;5098269;28;20211;-81
2023/07/18 12:00:04;;;;;;;3.03;1.15;;;26.50;1.00;;;;;;5098448;28;20210;-80
2023/07/18 12:02:31;;;;;;;4.85;1.42;;;26.10;1.00;;;;;;5096810;28;20282;-79
2023/07/18 12:04:58;;;;;;;1.63;1.25;;;26.60;1.00;;;;;;5095928;28;20193;-79
2023/07/18 12:07:25;;;;;;;4.05;1.30;;;26.00;1.00;;;;;;5095641;28;20206;-81
2023/07/18 12:09:53;;;;;;;1.48;0.93;;;26.20;1.00;;;;;;5095691;28;20212;-80
2023/07/18 12:12:23;;;;;;;2.50;1.13;;;26.50;1.00;;;;;;5096397;28;20241;-79
2023/07/18 12:14:50;;;;;;;4.97;1.55;;;25.80;1.00;;;;;;5095762;28;20324;-79
2023/07/18 12:17:17;;;;;;;4.97;1.70;;;25.40;1.00;;;;;;5098526;28;20204;-81
2023/07/18 12:19:44;;;;;;;1.92;1.10;;;25.30;1.00;;;;;;5098889;28;20205;-82
2023/07/18 12:22:11;;;;;;;3.20;1.30;;;25.50;1.00;;;;;;5098266;28;20252;-80
2023/07/18 12:24:38;;;;;;;2.97;1.48;;;25.80;1.00;;;;;;5099341;28;20657;-80
2023/07/18 12:27:06;;;;;;;1.63;1.25;;;25.90;1.00;;;;;;5091663;28;20193;-79
2023/07/18 12:29:33;;;;;;;2.38;1.38;;;25.30;1.00;;;;;;5091955;28;20599;-79
2023/07/18 12:32:00;;;;;;;0.95;0.80;;;25.00;1.00;;;;;;5092377;28;20279;-79
2023/07/18 12:34:28;;;;;;;2.10;1.20;;;24.90;1.00;;;;;;5092253;28;20229;-81
2023/07/18 12:36:54;;;;;;;2.30;0.98;;;25.00;1.00;;;;;;5093867;28;20194;-78
2023/07/18 12:39:22;;;;;;;2.78;1.42;;;25.40;1.00;;;;;;5096155;28;20564;-81
2023/07/18 12:41:49;;;;;;;1.73;1.42;;;25.60;1.00;;;;;;5092010;28;20209;-78
2023/07/18 12:44:20;;;;;;;1.20;1.10;;;26.10;1.00;;;;;;5097433;28;20200;-81
2023/07/18 12:46:48;;;;;;;3.15;1.45;;;26.20;1.00;;;;;;5094963;28;20297;-81
2023/07/18 12:49:14;;;;;;;2.10;1.27;;;25.80;1.00;;;;;;5083817;28;20198;-80